sensor_id;sensor_type;location;lat;lon;timestamp;P1;durP1;ratioP1;P2;durP2;ratioP2
3278;SDS011;1651;50.940;6.888;2023-06-22T00:01:52;7.63;;;5.93;;
3278;SDS011;1651;50.940;6.888;2023-06-22T00:04:18;5.97;;;4.77;;
3278;SDS011;1651;50.940;6.888;2023-06-22T00:06:47;6.50;;;5.30;;
3278;SDS011;1651;50.940;6.888;2023-06-22T00:09:13;6.00;;;4.07;;
3278;SDS011;1651;50.940;6.888;2023-06-22T00:11:39;7.57;;;5.50;;
3278;SDS011;1651;50.940;6.888;2023-06-22T00:14:05;8.83;;;5.30;;
3278;SDS011;1651;50.940;6.888;2023-06-22T00:16:31;5.43;;;4.67;;
3278;SDS011;1651;50.940;6.888;2023-06-22T00:18:58;4.77;;;4.37;;
3278;SDS011;1651;50.940;6.888;2023-06-22T00:21:26;5.33;;;4.80;;
3278;SDS011;1651;50.940;6.888;2023-06-22T00:23:52;5.20;;;4.70;;
3278;SDS011;1651;50.940;6.888;2023-06-22T00:26:18;6.60;;;5.43;;
3278;SDS011;1651;50.940;6.888;2023-06-22T00:28:44;4.33;;;3.93;;
3278;SDS011;1651;50.940;6.888;2023-06-22T00:31:10;5.00;;;4.50;;
3278;SDS011;1651;50.940;6.888;2023-06-22T00:33:36;7.57;;;4.57;;
3278;SDS011;1651;50.940;6.888;2023-06-22T00:36:02;5.03;;;4.53;;
3278;SDS011;1651;50.940;6.888;2023-06-22T00:38:28;6.77;;;5.07;;
3278;SDS011;1651;50.940;6.888;2023-06-22T00:40:54;9.37;;;4.60;;
3278;SDS011;1651;50.940;6.888;2023-06-22T00:43:20;5.50;;;5.00;;
3278;SDS011;1651;50.940;6.888;2023-06-22T00:45:46;5.03;;;4.27;;
3278;SDS011;1651;50.940;6.888;2023-06-22T00:50:48;7.93;;;4.23;;
3278;SDS011;1651;50.940;6.888;2023-06-22T00:53:16;5.27;;;4.53;;
3278;SDS011;1651;50.940;6.888;2023-06-22T00:55:43;4.93;;;4.53;;
3278;SDS011;1651;50.940;6.888;2023-06-22T00:58:11;6.00;;;5.40;;
3278;SDS011;1651;50.940;6.888;2023-06-22T01:00:38;7.97;;;4.57;;
3278;SDS011;1651;50.940;6.888;2023-06-22T01:03:05;5.73;;;4.43;;
3278;SDS011;1651;50.940;6.888;2023-06-22T01:05:34;5.57;;;4.53;;
3278;SDS011;1651;50.940;6.888;2023-06-22T01:08:05;4.70;;;4.30;;
3278;SDS011;1651;50.940;6.888;2023-06-22T01:15:57;6.47;;;4.17;;
3278;SDS011;1651;50.940;6.888;2023-06-22T01:18:26;5.60;;;4.63;;
3278;SDS011;1651;50.940;6.888;2023-06-22T01:20:55;4.60;;;4.00;;
3278;SDS011;1651;50.940;6.888;2023-06-22T01:23:31;4.50;;;4.07;;
3278;SDS011;1651;50.940;6.888;2023-06-22T01:26:06;5.67;;;4.80;;
3278;SDS011;1651;50.940;6.888;2023-06-22T01:31:16;5.33;;;4.20;;
3278;SDS011;1651;50.940;6.888;2023-06-22T01:33:44;5.33;;;4.40;;
3278;SDS011;1651;50.940;6.888;2023-06-22T01:36:10;5.20;;;4.63;;
3278;SDS011;1651;50.940;6.888;2023-06-22T01:38:37;6.50;;;4.43;;
3278;SDS011;1651;50.940;6.888;2023-06-22T01:41:03;6.83;;;4.40;;
3278;SDS011;1651;50.940;6.888;2023-06-22T01:43:29;5.97;;;4.20;;
3278;SDS011;1651;50.940;6.888;2023-06-22T01:45:56;6.60;;;5.00;;
3278;SDS011;1651;50.940;6.888;2023-06-22T01:48:22;4.57;;;4.17;;
3278;SDS011;1651;50.940;6.888;2023-06-22T01:50:50;5.83;;;4.63;;
3278;SDS011;1651;50.940;6.888;2023-06-22T01:53:16;5.23;;;4.50;;
3278;SDS011;1651;50.940;6.888;2023-06-22T01:55:42;7.03;;;4.83;;
3278;SDS011;1651;50.940;6.888;2023-06-22T01:58:08;6.10;;;4.83;;
3278;SDS011;1651;50.940;6.888;2023-06-22T02:00:36;4.83;;;4.33;;
3278;SDS011;1651;50.940;6.888;2023-06-22T02:03:05;5.00;;;4.50;;
3278;SDS011;1651;50.940;6.888;2023-06-22T02:05:36;4.60;;;3.90;;
3278;SDS011;1651;50.940;6.888;2023-06-22T02:10:33;5.77;;;4.10;;
3278;SDS011;1651;50.940;6.888;2023-06-22T02:13:00;7.13;;;3.77;;
3278;SDS011;1651;50.940;6.888;2023-06-22T02:15:26;7.30;;;4.50;;
3278;SDS011;1651;50.940;6.888;2023-06-22T02:17:52;5.30;;;4.30;;
3278;SDS011;1651;50.940;6.888;2023-06-22T02:20:18;8.13;;;4.60;;
3278;SDS011;1651;50.940;6.888;2023-06-22T02:22:45;4.10;;;3.70;;
3278;SDS011;1651;50.940;6.888;2023-06-22T02:25:11;5.03;;;4.53;;
3278;SDS011;1651;50.940;6.888;2023-06-22T02:27:37;7.03;;;4.37;;
3278;SDS011;1651;50.940;6.888;2023-06-22T02:30:09;4.83;;;4.30;;
3278;SDS011;1651;50.940;6.888;2023-06-22T02:32:35;5.60;;;3.90;;
3278;SDS011;1651;50.940;6.888;2023-06-22T02:35:01;4.20;;;3.80;;
3278;SDS011;1651;50.940;6.888;2023-06-22T02:37:31;6.20;;;4.80;;
3278;SDS011;1651;50.940;6.888;2023-06-22T02:39:58;4.97;;;4.47;;
3278;SDS011;1651;50.940;6.888;2023-06-22T02:42:24;4.83;;;3.90;;
3278;SDS011;1651;50.940;6.888;2023-06-22T02:44:50;5.90;;;4.83;;
3278;SDS011;1651;50.940;6.888;2023-06-22T02:47:16;6.23;;;4.47;;
3278;SDS011;1651;50.940;6.888;2023-06-22T02:49:42;4.07;;;3.60;;
3278;SDS011;1651;50.940;6.888;2023-06-22T02:52:10;5.23;;;4.00;;
3278;SDS011;1651;50.940;6.888;2023-06-22T02:54:37;5.87;;;4.10;;
3278;SDS011;1651;50.940;6.888;2023-06-22T02:57:04;4.93;;;4.00;;
3278;SDS011;1651;50.940;6.888;2023-06-22T02:59:30;4.33;;;3.90;;
3278;SDS011;1651;50.940;6.888;2023-06-22T03:01:56;5.83;;;4.13;;
3278;SDS011;1651;50.940;6.888;2023-06-22T03:04:23;5.67;;;5.17;;
3278;SDS011;1651;50.940;6.888;2023-06-22T03:06:49;4.87;;;3.90;;
3278;SDS011;1651;50.940;6.888;2023-06-22T03:09:16;4.80;;;4.30;;
3278;SDS011;1651;50.940;6.888;2023-06-22T03:11:42;5.90;;;4.43;;
3278;SDS011;1651;50.940;6.888;2023-06-22T03:14:08;4.73;;;4.10;;
3278;SDS011;1651;50.940;6.888;2023-06-22T03:16:34;10.27;;;3.43;;
3278;SDS011;1651;50.940;6.888;2023-06-22T03:19:00;4.80;;;3.93;;
3278;SDS011;1651;50.940;6.888;2023-06-22T03:21:29;7.00;;;4.73;;
3278;SDS011;1651;50.940;6.888;2023-06-22T03:23:55;11.90;;;3.93;;
3278;SDS011;1651;50.940;6.888;2023-06-22T03:26:21;5.50;;;4.30;;
3278;SDS011;1651;50.940;6.888;2023-06-22T03:28:48;5.70;;;4.00;;
3278;SDS011;1651;50.940;6.888;2023-06-22T03:31:14;4.93;;;4.10;;
3278;SDS011;1651;50.940;6.888;2023-06-22T03:33:40;7.93;;;4.43;;
3278;SDS011;1651;50.940;6.888;2023-06-22T03:36:07;6.53;;;3.83;;
3278;SDS011;1651;50.940;6.888;2023-06-22T03:38:33;5.80;;;4.40;;
3278;SDS011;1651;50.940;6.888;2023-06-22T03:40:59;5.27;;;4.00;;
3278;SDS011;1651;50.940;6.888;2023-06-22T03:43:25;4.53;;;4.00;;
3278;SDS011;1651;50.940;6.888;2023-06-22T03:45:51;6.27;;;3.90;;
3278;SDS011;1651;50.940;6.888;2023-06-22T03:48:17;5.73;;;3.67;;
3278;SDS011;1651;50.940;6.888;2023-06-22T03:50:43;8.67;;;4.80;;
3278;SDS011;1651;50.940;6.888;2023-06-22T03:53:09;4.97;;;4.47;;
3278;SDS011;1651;50.940;6.888;2023-06-22T03:55:36;5.47;;;4.67;;
3278;SDS011;1651;50.940;6.888;2023-06-22T03:58:02;6.13;;;3.80;;
3278;SDS011;1651;50.940;6.888;2023-06-22T04:00:31;4.43;;;4.03;;
3278;SDS011;1651;50.940;6.888;2023-06-22T04:02:57;4.70;;;3.93;;
3278;SDS011;1651;50.940;6.888;2023-06-22T04:05:23;4.90;;;3.90;;
3278;SDS011;1651;50.940;6.888;2023-06-22T04:07:50;4.40;;;4.00;;
3278;SDS011;1651;50.940;6.888;2023-06-22T04:10:18;5.33;;;4.17;;
3278;SDS011;1651;50.940;6.888;2023-06-22T04:12:44;5.93;;;4.57;;
3278;SDS011;1651;50.940;6.888;2023-06-22T04:15:10;4.60;;;4.20;;
3278;SDS011;1651;50.940;6.888;2023-06-22T04:17:37;5.73;;;3.67;;
3278;SDS011;1651;50.940;6.888;2023-06-22T04:20:03;7.23;;;4.00;;
3278;SDS011;1651;50.940;6.888;2023-06-22T04:22:29;6.53;;;4.37;;
3278;SDS011;1651;50.940;6.888;2023-06-22T04:24:55;6.87;;;4.23;;
3278;SDS011;1651;50.940;6.888;2023-06-22T04:27:21;4.40;;;4.00;;
3278;SDS011;1651;50.940;6.888;2023-06-22T04:29:48;5.50;;;4.00;;
3278;SDS011;1651;50.940;6.888;2023-06-22T04:32:17;4.40;;;3.83;;
3278;SDS011;1651;50.940;6.888;2023-06-22T04:34:43;5.50;;;4.10;;
3278;SDS011;1651;50.940;6.888;2023-06-22T04:37:09;3.93;;;3.63;;
3278;SDS011;1651;50.940;6.888;2023-06-22T04:39:40;5.80;;;4.00;;
3278;SDS011;1651;50.940;6.888;2023-06-22T04:42:06;6.97;;;4.90;;
3278;SDS011;1651;50.940;6.888;2023-06-22T04:44:32;4.70;;;3.90;;
3278;SDS011;1651;50.940;6.888;2023-06-22T04:46:58;4.40;;;3.90;;
3278;SDS011;1651;50.940;6.888;2023-06-22T04:49:25;8.60;;;3.80;;
3278;SDS011;1651;50.940;6.888;2023-06-22T04:51:59;6.90;;;4.87;;
3278;SDS011;1651;50.940;6.888;2023-06-22T04:54:25;6.60;;;4.87;;
3278;SDS011;1651;50.940;6.888;2023-06-22T04:56:51;4.33;;;3.87;;
3278;SDS011;1651;50.940;6.888;2023-06-22T04:59:26;4.37;;;3.97;;
3278;SDS011;1651;50.940;6.888;2023-06-22T05:02:00;5.30;;;4.10;;
3278;SDS011;1651;50.940;6.888;2023-06-22T05:04:26;5.23;;;4.27;;
3278;SDS011;1651;50.940;6.888;2023-06-22T05:06:53;7.50;;;4.10;;
3278;SDS011;1651;50.940;6.888;2023-06-22T05:09:20;5.13;;;4.63;;
3278;SDS011;1651;50.940;6.888;2023-06-22T05:11:47;6.20;;;4.90;;
3278;SDS011;1651;50.940;6.888;2023-06-22T05:14:14;5.27;;;3.90;;
3278;SDS011;1651;50.940;6.888;2023-06-22T05:16:43;7.30;;;5.00;;
3278;SDS011;1651;50.940;6.888;2023-06-22T05:19:10;4.50;;;4.10;;
3278;SDS011;1651;50.940;6.888;2023-06-22T05:21:36;7.20;;;4.53;;
3278;SDS011;1651;50.940;6.888;2023-06-22T05:24:02;7.73;;;4.57;;
3278;SDS011;1651;50.940;6.888;2023-06-22T05:26:36;6.80;;;4.40;;
3278;SDS011;1651;50.940;6.888;2023-06-22T05:29:05;5.30;;;4.30;;
3278;SDS011;1651;50.940;6.888;2023-06-22T05:34:36;8.80;;;5.50;;
3278;SDS011;1651;50.940;6.888;2023-06-22T05:37:02;9.13;;;5.20;;
3278;SDS011;1651;50.940;6.888;2023-06-22T05:39:29;5.00;;;4.27;;
3278;SDS011;1651;50.940;6.888;2023-06-22T05:41:55;6.90;;;5.10;;
3278;SDS011;1651;50.940;6.888;2023-06-22T05:44:23;7.67;;;3.93;;
3278;SDS011;1651;50.940;6.888;2023-06-22T05:46:49;7.30;;;4.57;;
3278;SDS011;1651;50.940;6.888;2023-06-22T05:49:15;25.97;;;5.90;;
3278;SDS011;1651;50.940;6.888;2023-06-22T05:51:42;5.03;;;4.17;;
3278;SDS011;1651;50.940;6.888;2023-06-22T05:54:08;8.57;;;4.60;;
3278;SDS011;1651;50.940;6.888;2023-06-22T05:56:36;8.37;;;5.40;;
3278;SDS011;1651;50.940;6.888;2023-06-22T05:59:02;8.53;;;5.53;;
3278;SDS011;1651;50.940;6.888;2023-06-22T06:01:28;5.83;;;5.20;;
3278;SDS011;1651;50.940;6.888;2023-06-22T06:03:59;4.97;;;4.57;;
3278;SDS011;1651;50.940;6.888;2023-06-22T06:06:25;5.13;;;4.63;;
3278;SDS011;1651;50.940;6.888;2023-06-22T06:08:53;7.77;;;5.43;;
3278;SDS011;1651;50.940;6.888;2023-06-22T06:11:19;8.10;;;6.93;;
3278;SDS011;1651;50.940;6.888;2023-06-22T06:13:45;13.73;;;7.70;;
3278;SDS011;1651;50.940;6.888;2023-06-22T06:16:12;9.53;;;8.63;;
3278;SDS011;1651;50.940;6.888;2023-06-22T06:18:38;8.93;;;7.80;;
3278;SDS011;1651;50.940;6.888;2023-06-22T06:21:04;8.30;;;7.37;;
3278;SDS011;1651;50.940;6.888;2023-06-22T06:23:30;9.07;;;8.20;;
3278;SDS011;1651;50.940;6.888;2023-06-22T06:25:56;8.00;;;7.30;;
3278;SDS011;1651;50.940;6.888;2023-06-22T06:28:22;7.70;;;7.00;;
3278;SDS011;1651;50.940;6.888;2023-06-22T06:30:48;10.13;;;7.67;;
3278;SDS011;1651;50.940;6.888;2023-06-22T06:33:17;9.50;;;8.50;;
3278;SDS011;1651;50.940;6.888;2023-06-22T06:35:43;8.33;;;7.60;;
3278;SDS011;1651;50.940;6.888;2023-06-22T06:38:09;9.03;;;8.10;;
3278;SDS011;1651;50.940;6.888;2023-06-22T06:40:35;8.40;;;7.70;;
3278;SDS011;1651;50.940;6.888;2023-06-22T06:43:02;9.43;;;8.63;;
3278;SDS011;1651;50.940;6.888;2023-06-22T06:45:27;9.37;;;8.50;;
3278;SDS011;1651;50.940;6.888;2023-06-22T06:47:56;8.87;;;8.00;;
3278;SDS011;1651;50.940;6.888;2023-06-22T06:50:22;8.70;;;7.90;;
3278;SDS011;1651;50.940;6.888;2023-06-22T06:52:48;8.97;;;8.23;;
3278;SDS011;1651;50.940;6.888;2023-06-22T06:55:16;9.23;;;8.30;;
3278;SDS011;1651;50.940;6.888;2023-06-22T06:57:42;7.10;;;6.50;;
3278;SDS011;1651;50.940;6.888;2023-06-22T07:00:09;9.47;;;8.67;;
3278;SDS011;1651;50.940;6.888;2023-06-22T07:02:40;8.93;;;8.10;;
3278;SDS011;1651;50.940;6.888;2023-06-22T07:05:06;8.83;;;7.27;;
3278;SDS011;1651;50.940;6.888;2023-06-22T07:07:33;8.27;;;7.50;;
3278;SDS011;1651;50.940;6.888;2023-06-22T07:09:59;8.17;;;7.40;;
3278;SDS011;1651;50.940;6.888;2023-06-22T07:12:25;7.80;;;7.00;;
3278;SDS011;1651;50.940;6.888;2023-06-22T07:14:51;7.17;;;6.57;;
3278;SDS011;1651;50.940;6.888;2023-06-22T07:17:17;8.03;;;7.23;;
3278;SDS011;1651;50.940;6.888;2023-06-22T07:19:45;9.10;;;8.30;;
3278;SDS011;1651;50.940;6.888;2023-06-22T07:22:14;7.77;;;6.87;;
3278;SDS011;1651;50.940;6.888;2023-06-22T07:24:42;9.90;;;6.40;;
3278;SDS011;1651;50.940;6.888;2023-06-22T07:27:08;6.93;;;6.33;;
3278;SDS011;1651;50.940;6.888;2023-06-22T07:29:36;7.80;;;6.47;;
3278;SDS011;1651;50.940;6.888;2023-06-22T07:32:05;10.23;;;7.50;;
3278;SDS011;1651;50.940;6.888;2023-06-22T07:34:31;7.33;;;6.73;;
3278;SDS011;1651;50.940;6.888;2023-06-22T07:36:58;7.17;;;6.57;;
3278;SDS011;1651;50.940;6.888;2023-06-22T07:39:26;7.83;;;5.80;;
3278;SDS011;1651;50.940;6.888;2023-06-22T07:41:53;7.57;;;6.70;;
3278;SDS011;1651;50.940;6.888;2023-06-22T07:44:24;8.03;;;7.17;;
3278;SDS011;1651;50.940;6.888;2023-06-22T07:46:50;9.07;;;8.27;;
3278;SDS011;1651;50.940;6.888;2023-06-22T07:49:16;8.27;;;7.47;;
3278;SDS011;1651;50.940;6.888;2023-06-22T07:51:42;7.83;;;7.10;;
3278;SDS011;1651;50.940;6.888;2023-06-22T07:54:09;7.90;;;6.30;;
3278;SDS011;1651;50.940;6.888;2023-06-22T07:56:36;8.93;;;6.53;;
3278;SDS011;1651;50.940;6.888;2023-06-22T07:59:03;7.10;;;6.40;;
3278;SDS011;1651;50.940;6.888;2023-06-22T08:01:29;8.33;;;6.80;;
3278;SDS011;1651;50.940;6.888;2023-06-22T08:03:56;6.80;;;6.30;;
3278;SDS011;1651;50.940;6.888;2023-06-22T08:06:22;7.67;;;7.03;;
3278;SDS011;1651;50.940;6.888;2023-06-22T08:08:49;6.93;;;6.33;;
3278;SDS011;1651;50.940;6.888;2023-06-22T08:11:17;6.43;;;5.90;;
3278;SDS011;1651;50.940;6.888;2023-06-22T08:13:44;6.37;;;5.80;;
3278;SDS011;1651;50.940;6.888;2023-06-22T08:16:10;9.50;;;5.93;;
3278;SDS011;1651;50.940;6.888;2023-06-22T08:18:37;7.43;;;6.83;;
3278;SDS011;1651;50.940;6.888;2023-06-22T08:21:04;7.17;;;6.60;;
3278;SDS011;1651;50.940;6.888;2023-06-22T08:23:30;5.80;;;5.30;;
3278;SDS011;1651;50.940;6.888;2023-06-22T08:25:57;7.30;;;6.10;;
3278;SDS011;1651;50.940;6.888;2023-06-22T08:28:23;7.17;;;6.57;;
3278;SDS011;1651;50.940;6.888;2023-06-22T08:30:49;6.90;;;6.40;;
3278;SDS011;1651;50.940;6.888;2023-06-22T08:33:15;6.93;;;6.33;;
3278;SDS011;1651;50.940;6.888;2023-06-22T08:35:43;8.23;;;6.90;;
3278;SDS011;1651;50.940;6.888;2023-06-22T08:38:10;6.50;;;5.50;;
3278;SDS011;1651;50.940;6.888;2023-06-22T08:40:40;6.63;;;5.97;;
3278;SDS011;1651;50.940;6.888;2023-06-22T08:43:06;6.73;;;5.80;;
3278;SDS011;1651;50.940;6.888;2023-06-22T08:45:32;7.00;;;5.93;;
3278;SDS011;1651;50.940;6.888;2023-06-22T08:48:00;6.30;;;5.70;;
3278;SDS011;1651;50.940;6.888;2023-06-22T08:50:26;6.57;;;6.03;;
3278;SDS011;1651;50.940;6.888;2023-06-22T08:52:52;6.40;;;5.90;;
3278;SDS011;1651;50.940;6.888;2023-06-22T08:55:18;6.47;;;5.87;;
3278;SDS011;1651;50.940;6.888;2023-06-22T08:57:45;5.33;;;4.83;;
3278;SDS011;1651;50.940;6.888;2023-06-22T09:00:11;6.40;;;5.90;;
3278;SDS011;1651;50.940;6.888;2023-06-22T09:02:45;8.07;;;6.93;;
3278;SDS011;1651;50.940;6.888;2023-06-22T09:05:13;8.83;;;5.97;;
3278;SDS011;1651;50.940;6.888;2023-06-22T09:07:39;6.53;;;5.90;;
3278;SDS011;1651;50.940;6.888;2023-06-22T09:10:05;6.77;;;6.17;;
3278;SDS011;1651;50.940;6.888;2023-06-22T09:12:31;7.43;;;6.73;;
3278;SDS011;1651;50.940;6.888;2023-06-22T09:14:58;8.30;;;7.50;;
3278;SDS011;1651;50.940;6.888;2023-06-22T09:17:27;7.27;;;6.57;;
3278;SDS011;1651;50.940;6.888;2023-06-22T09:19:53;8.33;;;7.60;;
3278;SDS011;1651;50.940;6.888;2023-06-22T09:22:19;7.90;;;7.07;;
3278;SDS011;1651;50.940;6.888;2023-06-22T09:24:45;6.90;;;6.20;;
3278;SDS011;1651;50.940;6.888;2023-06-22T09:27:12;8.30;;;7.13;;
3278;SDS011;1651;50.940;6.888;2023-06-22T09:29:37;10.83;;;6.33;;
3278;SDS011;1651;50.940;6.888;2023-06-22T09:32:04;6.93;;;6.20;;
3278;SDS011;1651;50.940;6.888;2023-06-22T09:34:30;7.77;;;5.93;;
3278;SDS011;1651;50.940;6.888;2023-06-22T09:36:56;7.63;;;6.90;;
3278;SDS011;1651;50.940;6.888;2023-06-22T09:39:23;6.23;;;5.63;;
3278;SDS011;1651;50.940;6.888;2023-06-22T09:41:49;6.90;;;6.30;;
3278;SDS011;1651;50.940;6.888;2023-06-22T09:44:17;6.10;;;5.50;;
3278;SDS011;1651;50.940;6.888;2023-06-22T09:46:43;5.93;;;5.50;;
3278;SDS011;1651;50.940;6.888;2023-06-22T09:49:09;6.67;;;5.53;;
3278;SDS011;1651;50.940;6.888;2023-06-22T09:51:35;8.10;;;6.70;;
3278;SDS011;1651;50.940;6.888;2023-06-22T09:54:01;7.57;;;6.80;;
3278;SDS011;1651;50.940;6.888;2023-06-22T09:56:27;6.70;;;6.20;;
3278;SDS011;1651;50.940;6.888;2023-06-22T09:58:55;7.07;;;6.37;;
3278;SDS011;1651;50.940;6.888;2023-06-22T10:01:21;7.43;;;6.83;;
3278;SDS011;1651;50.940;6.888;2023-06-22T10:03:49;6.43;;;5.87;;
3278;SDS011;1651;50.940;6.888;2023-06-22T10:06:15;7.47;;;6.77;;
3278;SDS011;1651;50.940;6.888;2023-06-22T10:08:41;6.70;;;6.03;;
3278;SDS011;1651;50.940;6.888;2023-06-22T10:11:07;7.17;;;6.57;;
3278;SDS011;1651;50.940;6.888;2023-06-22T10:13:33;8.43;;;7.53;;
3278;SDS011;1651;50.940;6.888;2023-06-22T10:15:59;7.47;;;6.87;;
3278;SDS011;1651;50.940;6.888;2023-06-22T10:18:25;13.80;;;7.47;;
3278;SDS011;1651;50.940;6.888;2023-06-22T10:20:51;8.73;;;6.53;;
3278;SDS011;1651;50.940;6.888;2023-06-22T10:23:17;8.30;;;7.50;;
3278;SDS011;1651;50.940;6.888;2023-06-22T10:25:43;9.30;;;8.30;;
3278;SDS011;1651;50.940;6.888;2023-06-22T10:28:09;10.67;;;7.77;;
3278;SDS011;1651;50.940;6.888;2023-06-22T10:30:35;10.20;;;8.13;;
3278;SDS011;1651;50.940;6.888;2023-06-22T10:33:01;9.13;;;8.27;;
3278;SDS011;1651;50.940;6.888;2023-06-22T10:35:27;10.50;;;8.50;;
3278;SDS011;1651;50.940;6.888;2023-06-22T10:37:54;9.73;;;8.80;;
3278;SDS011;1651;50.940;6.888;2023-06-22T10:40:21;14.20;;;9.80;;
3278;SDS011;1651;50.940;6.888;2023-06-22T10:42:49;11.50;;;9.70;;
3278;SDS011;1651;50.940;6.888;2023-06-22T10:45:18;16.00;;;10.73;;
3278;SDS011;1651;50.940;6.888;2023-06-22T10:47:44;12.60;;;10.47;;
3278;SDS011;1651;50.940;6.888;2023-06-22T10:50:10;11.60;;;10.57;;
3278;SDS011;1651;50.940;6.888;2023-06-22T10:52:36;11.67;;;10.57;;
3278;SDS011;1651;50.940;6.888;2023-06-22T10:55:03;14.60;;;11.60;;
3278;SDS011;1651;50.940;6.888;2023-06-22T10:57:29;12.33;;;11.10;;
3278;SDS011;1651;50.940;6.888;2023-06-22T10:59:55;15.07;;;12.50;;
3278;SDS011;1651;50.940;6.888;2023-06-22T11:02:21;19.50;;;13.67;;
3278;SDS011;1651;50.940;6.888;2023-06-22T11:04:47;16.73;;;12.53;;
3278;SDS011;1651;50.940;6.888;2023-06-22T11:07:13;15.00;;;13.40;;
3278;SDS011;1651;50.940;6.888;2023-06-22T11:09:39;16.13;;;12.77;;
3278;SDS011;1651;50.940;6.888;2023-06-22T11:12:05;18.57;;;14.23;;
3278;SDS011;1651;50.940;6.888;2023-06-22T11:14:31;16.33;;;13.33;;
3278;SDS011;1651;50.940;6.888;2023-06-22T11:16:58;18.00;;;14.30;;
3278;SDS011;1651;50.940;6.888;2023-06-22T11:19:24;16.33;;;14.30;;
3278;SDS011;1651;50.940;6.888;2023-06-22T11:21:50;18.47;;;14.47;;
3278;SDS011;1651;50.940;6.888;2023-06-22T11:24:17;20.67;;;15.03;;
3278;SDS011;1651;50.940;6.888;2023-06-22T11:26:43;17.43;;;14.73;;
3278;SDS011;1651;50.940;6.888;2023-06-22T11:29:09;16.67;;;14.33;;
3278;SDS011;1651;50.940;6.888;2023-06-22T11:31:35;18.23;;;14.23;;
3278;SDS011;1651;50.940;6.888;2023-06-22T11:34:02;18.97;;;14.13;;
3278;SDS011;1651;50.940;6.888;2023-06-22T11:36:28;14.70;;;13.20;;
3278;SDS011;1651;50.940;6.888;2023-06-22T11:38:57;13.33;;;11.93;;
3278;SDS011;1651;50.940;6.888;2023-06-22T11:41:23;14.10;;;12.67;;
3278;SDS011;1651;50.940;6.888;2023-06-22T11:43:51;14.80;;;13.27;;
3278;SDS011;1651;50.940;6.888;2023-06-22T11:46:19;16.17;;;13.83;;
3278;SDS011;1651;50.940;6.888;2023-06-22T11:48:45;20.00;;;16.00;;
3278;SDS011;1651;50.940;6.888;2023-06-22T11:51:11;17.43;;;14.00;;
3278;SDS011;1651;50.940;6.888;2023-06-22T11:53:37;18.00;;;14.23;;
3278;SDS011;1651;50.940;6.888;2023-06-22T11:56:03;16.23;;;14.57;;
3278;SDS011;1651;50.940;6.888;2023-06-22T11:58:30;18.17;;;15.33;;
3278;SDS011;1651;50.940;6.888;2023-06-22T12:00:56;18.20;;;15.33;;
3278;SDS011;1651;50.940;6.888;2023-06-22T12:03:22;16.87;;;15.07;;
3278;SDS011;1651;50.940;6.888;2023-06-22T12:05:49;15.20;;;13.00;;
3278;SDS011;1651;50.940;6.888;2023-06-22T12:08:16;16.07;;;14.30;;
3278;SDS011;1651;50.940;6.888;2023-06-22T12:10:42;16.00;;;13.50;;
3278;SDS011;1651;50.940;6.888;2023-06-22T12:13:08;12.70;;;11.40;;
3278;SDS011;1651;50.940;6.888;2023-06-22T12:15:34;14.20;;;11.90;;
3278;SDS011;1651;50.940;6.888;2023-06-22T12:18:00;13.67;;;11.63;;
3278;SDS011;1651;50.940;6.888;2023-06-22T12:20:26;13.13;;;11.73;;
3278;SDS011;1651;50.940;6.888;2023-06-22T12:22:52;14.13;;;12.60;;
3278;SDS011;1651;50.940;6.888;2023-06-22T12:25:21;14.47;;;12.50;;
3278;SDS011;1651;50.940;6.888;2023-06-22T12:27:49;15.00;;;12.57;;
3278;SDS011;1651;50.940;6.888;2023-06-22T12:30:15;14.80;;;13.30;;
3278;SDS011;1651;50.940;6.888;2023-06-22T12:32:42;14.10;;;12.60;;
3278;SDS011;1651;50.940;6.888;2023-06-22T12:35:08;13.87;;;11.80;;
3278;SDS011;1651;50.940;6.888;2023-06-22T12:37:39;12.83;;;11.43;;
3278;SDS011;1651;50.940;6.888;2023-06-22T12:40:06;13.50;;;11.20;;
3278;SDS011;1651;50.940;6.888;2023-06-22T12:42:32;14.00;;;11.20;;
3278;SDS011;1651;50.940;6.888;2023-06-22T12:44:59;13.00;;;11.70;;
3278;SDS011;1651;50.940;6.888;2023-06-22T12:47:26;13.27;;;11.87;;
3278;SDS011;1651;50.940;6.888;2023-06-22T12:49:52;14.17;;;11.20;;
3278;SDS011;1651;50.940;6.888;2023-06-22T12:52:18;10.57;;;9.10;;
3278;SDS011;1651;50.940;6.888;2023-06-22T12:54:44;10.63;;;8.80;;
3278;SDS011;1651;50.940;6.888;2023-06-22T12:57:10;12.23;;;10.93;;
3278;SDS011;1651;50.940;6.888;2023-06-22T12:59:36;10.77;;;9.67;;
3278;SDS011;1651;50.940;6.888;2023-06-22T13:02:02;10.80;;;9.70;;
3278;SDS011;1651;50.940;6.888;2023-06-22T13:04:29;10.67;;;8.53;;
3278;SDS011;1651;50.940;6.888;2023-06-22T13:06:55;13.03;;;8.10;;
3278;SDS011;1651;50.940;6.888;2023-06-22T13:11:50;10.77;;;9.13;;
3278;SDS011;1651;50.940;6.888;2023-06-22T13:14:17;14.33;;;8.90;;
3278;SDS011;1651;50.940;6.888;2023-06-22T13:16:43;10.23;;;9.17;;
3278;SDS011;1651;50.940;6.888;2023-06-22T13:19:09;9.00;;;8.10;;
3278;SDS011;1651;50.940;6.888;2023-06-22T13:21:35;9.83;;;8.93;;
3278;SDS011;1651;50.940;6.888;2023-06-22T13:24:01;10.97;;;8.73;;
3278;SDS011;1651;50.940;6.888;2023-06-22T13:26:28;10.47;;;9.50;;
3278;SDS011;1651;50.940;6.888;2023-06-22T13:28:54;9.33;;;7.90;;
3278;SDS011;1651;50.940;6.888;2023-06-22T13:31:20;8.13;;;7.33;;
3278;SDS011;1651;50.940;6.888;2023-06-22T13:33:46;8.90;;;8.10;;
3278;SDS011;1651;50.940;6.888;2023-06-22T13:36:13;8.73;;;6.63;;
3278;SDS011;1651;50.940;6.888;2023-06-22T13:38:43;8.67;;;7.77;;
3278;SDS011;1651;50.940;6.888;2023-06-22T13:41:09;8.20;;;7.43;;
3278;SDS011;1651;50.940;6.888;2023-06-22T13:43:34;7.43;;;6.63;;
3278;SDS011;1651;50.940;6.888;2023-06-22T13:46:00;6.43;;;5.90;;
3278;SDS011;1651;50.940;6.888;2023-06-22T13:48:26;7.13;;;6.53;;
3278;SDS011;1651;50.940;6.888;2023-06-22T13:50:53;7.40;;;6.60;;
3278;SDS011;1651;50.940;6.888;2023-06-22T13:53:19;8.40;;;6.80;;
3278;SDS011;1651;50.940;6.888;2023-06-22T13:55:45;7.93;;;6.27;;
3278;SDS011;1651;50.940;6.888;2023-06-22T13:58:12;6.50;;;5.50;;
3278;SDS011;1651;50.940;6.888;2023-06-22T14:00:38;6.30;;;5.70;;
3278;SDS011;1651;50.940;6.888;2023-06-22T14:03:04;6.33;;;5.60;;
3278;SDS011;1651;50.940;6.888;2023-06-22T14:05:30;5.97;;;5.37;;
3278;SDS011;1651;50.940;6.888;2023-06-22T14:07:57;6.13;;;5.60;;
3278;SDS011;1651;50.940;6.888;2023-06-22T14:10:23;6.40;;;5.80;;
3278;SDS011;1651;50.940;6.888;2023-06-22T14:12:49;5.70;;;5.13;;
3278;SDS011;1651;50.940;6.888;2023-06-22T14:15:15;5.03;;;4.53;;
3278;SDS011;1651;50.940;6.888;2023-06-22T14:17:41;5.40;;;4.90;;
3278;SDS011;1651;50.940;6.888;2023-06-22T14:20:07;4.20;;;3.80;;
3278;SDS011;1651;50.940;6.888;2023-06-22T14:22:33;5.50;;;4.70;;
3278;SDS011;1651;50.940;6.888;2023-06-22T14:25:00;4.50;;;4.10;;
3278;SDS011;1651;50.940;6.888;2023-06-22T14:27:26;5.47;;;4.63;;
3278;SDS011;1651;50.940;6.888;2023-06-22T14:29:52;5.03;;;4.53;;
3278;SDS011;1651;50.940;6.888;2023-06-22T14:32:20;5.30;;;4.80;;
3278;SDS011;1651;50.940;6.888;2023-06-22T14:34:46;5.80;;;5.10;;
3278;SDS011;1651;50.940;6.888;2023-06-22T14:37:15;6.53;;;5.43;;
3278;SDS011;1651;50.940;6.888;2023-06-22T14:39:41;6.20;;;5.70;;
3278;SDS011;1651;50.940;6.888;2023-06-22T14:42:08;6.20;;;5.57;;
3278;SDS011;1651;50.940;6.888;2023-06-22T14:44:34;6.57;;;5.93;;
3278;SDS011;1651;50.940;6.888;2023-06-22T14:47:00;6.97;;;6.37;;
3278;SDS011;1651;50.940;6.888;2023-06-22T14:49:26;7.50;;;6.47;;
3278;SDS011;1651;50.940;6.888;2023-06-22T14:51:52;6.13;;;5.40;;
3278;SDS011;1651;50.940;6.888;2023-06-22T14:54:18;6.67;;;6.03;;
3278;SDS011;1651;50.940;6.888;2023-06-22T14:56:44;6.60;;;6.00;;
3278;SDS011;1651;50.940;6.888;2023-06-22T14:59:10;6.53;;;5.90;;
3278;SDS011;1651;50.940;6.888;2023-06-22T15:01:36;7.07;;;5.73;;
3278;SDS011;1651;50.940;6.888;2023-06-22T15:04:02;6.10;;;5.50;;
3278;SDS011;1651;50.940;6.888;2023-06-22T15:06:28;6.00;;;5.10;;
3278;SDS011;1651;50.940;6.888;2023-06-22T15:08:54;5.67;;;5.17;;
3278;SDS011;1651;50.940;6.888;2023-06-22T15:11:20;6.50;;;4.90;;
3278;SDS011;1651;50.940;6.888;2023-06-22T15:13:46;6.60;;;4.40;;
3278;SDS011;1651;50.940;6.888;2023-06-22T15:16:12;7.30;;;6.60;;
3278;SDS011;1651;50.940;6.888;2023-06-22T15:18:38;7.40;;;6.63;;
3278;SDS011;1651;50.940;6.888;2023-06-22T15:21:06;9.60;;;6.20;;
3278;SDS011;1651;50.940;6.888;2023-06-22T15:23:32;12.50;;;7.53;;
3278;SDS011;1651;50.940;6.888;2023-06-22T15:26:01;10.17;;;6.90;;